Huvudsida
METAR-TAF:

METAR-TAF

Flygplatser :

Zadars flygplats

Zadar, Kroatien

latitud: 44-06N, longitud: 015-21E, höjd: 82 m

Aktuellt väderrapport

Denna rapport gjordes för 19 minuter sedan, klockan 21:00 UTC
Vind 5 kt från syd/sydost
Temperatur 2°C
Fuktighet 93%
Tryck 1011 hPa
Sikt 10 km eller mer
Inga moln under 1 500 m eller inga cumulonimbus

METAR: LDZD 142100Z 15005KT CAVOK 02/01 Q1011 NOSIG

Tid: 22:19 (21:19 UTC)

Väderprognos

Denna rapport gjordes för 3 timmar och 54 minuter sedan, klockan 17:25 UTC
Prognos gäller från 14 kl. 18 UTC till 15 kl. 18 UTC
Vind 4 kt från ost
Sikt 10 km eller mer
Inga moln under 1 500 m eller inga cumulonimbus
Sannolikhet 40% :
Temporärt
från 14 kl. 23 UTC till 15 kl. 08 UTC
Vind 8 kt från ost
Blir
från 15 kl. 08 UTC till 15 kl. 10 UTC
Vind 9 kt från ost

TAF: LDZD 141725Z 1418/1518 10004KT CAVOK TX15/1512Z TNM01/1501Z PROB40 TEMPO 1423/1508 08008KT BECMG 1508/1510 10009KT

Aktuella väderrapporter och prognoser från 4000 flygplatser (METAR- och TAF-rapporter).

De tillgängliga stationerna syns som gula och röda prickar på kartan.

För musen över prickarna för att se namnen på stationerna.

Klicka sedan för att få väderrapporter och prognoser.

För att ändra kartan: Klicka på de gröna knapparna med ett svart kors på för att zooma in; den gröna knappen med ett streck på för att zooma ut; eller på de gröna pilarna för angränsande kartor.


METAR-TAF: